BrazilFixed distance
La Mision Brazil - Short Mision 50 Kms
18–19 Aug2018
Distance
50km
Finishers
11891 men27 women
Winning time
6:31:45h
Median pace
4.75km/h
Pace distribution
118 finishers · 3.49–7.66 km/h · mean 4.88
Every finisher ran the same 50 km course, so these paces are directly comparable.
Histogram of finisher pace. 118 finishers ranged from 3.49 to 7.66 kilometres per hour, with a mean of 4.88 and a median of 4.75. The busiest band is 4.0 to 4.5 kilometres per hour, with 24 finishers.
Results
Ranks 1–50 of 118
| Rank | Runner | Time | Pace | Cat. | Placing |
|---|---|---|---|---|---|
| 1 | Bicho Do Mato Team - U... | 6:31:45h | 7.66 | M23 | 1st M · 1st M23 |
| 2 | Família Trail | 6:36:10h | 7.57 | M23 | 2nd M · 2nd M23 |
| 3 | Família Trail | 6:42:26h | 7.46 | M23 | 3rd M · 3rd M23 |
| 4 | Família Trail | 7:03:06h | 7.09 | M23 | 4th M · 4th M23 |
| 5 | Campinas | 7:07:12h | 7.02 | M35 | 5th M · 1st M35 |
| 6 | Território | 7:07:29h | 7.02 | W23 | 1st F · 1st W23 |
| 7 | Carbono Assessoria Esp... | 7:24:37h | 6.75 | M40 | 6th M · 1st M40 |
| 8 | Pazian Runners | 7:33:02h | 6.62 | M35 | 7th M · 2nd M35 |
| 9 | Tourino | 7:54:02h | 6.33 | M40 | 8th M · 2nd M40 |
| 10 | D Run Campinas | 8:00:09h | 6.25 | M45 | 9th M · 1st M45 |
| 11 | Apteam | 8:16:58h | 6.04 | M40 | 10th M · 3rd M40 |
| 12 | Universo Trail Run | 8:19:17h | 6.01 | M35 | 11th M · 3rd M35 |
| 13 | Corrida Ancestral | 8:20:25h | 6.00 | M23 | 12th M · 5th M23 |
| 14 | Cabornoacessoria | 8:21:25h | 5.98 | M23 | 13th M · 6th M23 |
| 15 | Sme P | 8:21:24h | 5.98 | MU23 | 14th M · 1st MU23 |
| 16 | Lobo Adventure | 8:25:13h | 5.94 | M35 | 15th M · 4th M35 |
| 17 | Adevan Pereira | 8:26:36h | 5.92 | W35 | 2nd F · 1st W35 |
| 18 | Vem | 8:26:37h | 5.92 | M40 | 16th M · 4th M40 |
| 19 | Gtt | 8:29:31h | 5.89 | M40 | 17th M · 5th M40 |
| 20 | Vem Assessoria Esportiva | 8:36:33h | 5.81 | W35 | 3rd F · 2nd W35 |
| 21 | Bpm Assessoria Esportiva | 8:37:50h | 5.79 | M40 | 18th M · 6th M40 |
| 22 | Alan Zonzini Treinamen... | 8:46:33h | 5.70 | M35 | 19th M · 5th M35 |
| 23 | Ladeiras Tean | 8:47:55h | 5.68 | M40 | 20th M · 7th M40 |
| 24 | D Run | 8:49:15h | 5.67 | M35 | 21st M · 6th M35 |
| 25 | Five Trainning | 8:58:59h | 5.57 | M45 | 22nd M · 2nd M45 |
| 26 | Bhtrailrun | 9:03:48h | 5.52 | M23 | 23rd M · 7th M23 |
| 27 | Oc - Orlando Castilho | 9:06:26h | 5.49 | M35 | 24th M · 7th M35 |
| 28 | Remião Treinamento Físico | 9:08:51h | 5.47 | M40 | 25th M · 8th M40 |
| 29 | Raiz Trail | 9:08:53h | 5.47 | M35 | 26th M · 8th M35 |
| 30 | Btr Bento Trail Runners | 9:12:19h | 5.43 | W35 | 4th F · 3rd W35 |
| 31 | Btr Trail Runners | 9:12:20h | 5.43 | M35 | 27th M · 9th M35 |
| 32 | Barros Assessoria | 9:13:43h | 5.42 | M35 | 28th M · 10th M35 |
| 33 | Rio Saúde | 9:18:29h | 5.37 | M35 | 29th M · 11th M35 |
| 34 | Sme Passa Quatro | 9:19:14h | 5.36 | M23 | 30th M · 8th M23 |
| 35 | Citius Acessoria Espor... | 9:34:14h | 5.22 | M35 | 31st M · 12th M35 |
| 36 | Citius Assessoria Espo... | 9:38:42h | 5.18 | M23 | 32nd M · 9th M23 |
| 37 | Sme - Passa Quatro / F... | 9:44:11h | 5.13 | M23 | 33rd M · 10th M23 |
| 38 | Trb | 9:44:02h | 5.14 | M23 | 34th M · 11th M23 |
| 39 | Jvm Trail Run | 9:44:31h | 5.13 | M35 | 35th M · 13th M35 |
| 40 | Bonde Do Trail Running | 9:45:52h | 5.12 | M35 | 36th M · 14th M35 |
| 41 | Bpm Aniceski | 9:47:57h | 5.10 | M23 | 37th M · 12th M23 |
| 42 | Ubatuba Outdoor Fitness | 9:48:27h | 5.10 | W35 | 5th F · 4th W35 |
| 43 | Upfitrail | 9:48:58h | 5.09 | W40 | 6th F · 1st W40 |
| 44 | Upfitrail | 9:48:59h | 5.09 | M40 | 38th M · 9th M40 |
| 45 | Team Chazarreta | 9:54:31h | 5.05 | M35 | 39th M · 15th M35 |
| 46 | Mlx | 9:55:42h | 5.04 | W45 | 7th F · 1st W45 |
| 47 | Team Ultra Chico | 9:55:52h | 5.04 | W35 | 8th F · 5th W35 |
| 48 | Carbono Assessoria Esp... | 9:58:01h | 5.02 | M40 | 40th M · 10th M40 |
| 49 | Gr Assessoria Esportiva | 9:57:43h | 5.02 | M23 | 41st M · 13th M23 |
| 50 | Tendência Outdoor | 9:58:05h | 5.02 | W23 | 9th F · 2nd W23 |
- 1Bicho Do Mato Team - U...1st M · 1st M23Time6:31:45hPace7.66Cat.M23
- 2Família Trail2nd M · 2nd M23Time6:36:10hPace7.57Cat.M23
- 3Família Trail3rd M · 3rd M23Time6:42:26hPace7.46Cat.M23
- 4Família Trail4th M · 4th M23Time7:03:06hPace7.09Cat.M23
- 5Campinas5th M · 1st M35Time7:07:12hPace7.02Cat.M35
- 6Território1st F · 1st W23Time7:07:29hPace7.02Cat.W23
- 7Carbono Assessoria Esp...6th M · 1st M40Time7:24:37hPace6.75Cat.M40
- 8Pazian Runners7th M · 2nd M35Time7:33:02hPace6.62Cat.M35
- 9Tourino8th M · 2nd M40Time7:54:02hPace6.33Cat.M40
- 10D Run Campinas9th M · 1st M45Time8:00:09hPace6.25Cat.M45
- 11Apteam10th M · 3rd M40Time8:16:58hPace6.04Cat.M40
- 12Universo Trail Run11th M · 3rd M35Time8:19:17hPace6.01Cat.M35
- 13Corrida Ancestral12th M · 5th M23Time8:20:25hPace6.00Cat.M23
- 14Cabornoacessoria13th M · 6th M23Time8:21:25hPace5.98Cat.M23
- 15Sme P14th M · 1st MU23Time8:21:24hPace5.98Cat.MU23
- 16Lobo Adventure15th M · 4th M35Time8:25:13hPace5.94Cat.M35
- 17Adevan Pereira2nd F · 1st W35Time8:26:36hPace5.92Cat.W35
- 18Vem16th M · 4th M40Time8:26:37hPace5.92Cat.M40
- 19Gtt17th M · 5th M40Time8:29:31hPace5.89Cat.M40
- 20Vem Assessoria Esportiva3rd F · 2nd W35Time8:36:33hPace5.81Cat.W35
- 21Bpm Assessoria Esportiva18th M · 6th M40Time8:37:50hPace5.79Cat.M40
- 22Alan Zonzini Treinamen...19th M · 5th M35Time8:46:33hPace5.70Cat.M35
- 23Ladeiras Tean20th M · 7th M40Time8:47:55hPace5.68Cat.M40
- 24D Run21st M · 6th M35Time8:49:15hPace5.67Cat.M35
- 25Five Trainning22nd M · 2nd M45Time8:58:59hPace5.57Cat.M45
- 26Bhtrailrun23rd M · 7th M23Time9:03:48hPace5.52Cat.M23
- 27Oc - Orlando Castilho24th M · 7th M35Time9:06:26hPace5.49Cat.M35
- 28Remião Treinamento Físico25th M · 8th M40Time9:08:51hPace5.47Cat.M40
- 29Raiz Trail26th M · 8th M35Time9:08:53hPace5.47Cat.M35
- 30Btr Bento Trail Runners4th F · 3rd W35Time9:12:19hPace5.43Cat.W35
- 31Btr Trail Runners27th M · 9th M35Time9:12:20hPace5.43Cat.M35
- 32Barros Assessoria28th M · 10th M35Time9:13:43hPace5.42Cat.M35
- 33Rio Saúde29th M · 11th M35Time9:18:29hPace5.37Cat.M35
- 34Sme Passa Quatro30th M · 8th M23Time9:19:14hPace5.36Cat.M23
- 35Citius Acessoria Espor...31st M · 12th M35Time9:34:14hPace5.22Cat.M35
- 36Citius Assessoria Espo...32nd M · 9th M23Time9:38:42hPace5.18Cat.M23
- 37Sme - Passa Quatro / F...33rd M · 10th M23Time9:44:11hPace5.13Cat.M23
- 38Trb34th M · 11th M23Time9:44:02hPace5.14Cat.M23
- 39Jvm Trail Run35th M · 13th M35Time9:44:31hPace5.13Cat.M35
- 40Bonde Do Trail Running36th M · 14th M35Time9:45:52hPace5.12Cat.M35
- 41Bpm Aniceski37th M · 12th M23Time9:47:57hPace5.10Cat.M23
- 42Ubatuba Outdoor Fitness5th F · 4th W35Time9:48:27hPace5.10Cat.W35
- 43Upfitrail6th F · 1st W40Time9:48:58hPace5.09Cat.W40
- 44Upfitrail38th M · 9th M40Time9:48:59hPace5.09Cat.M40
- 45Team Chazarreta39th M · 15th M35Time9:54:31hPace5.05Cat.M35
- 46Mlx7th F · 1st W45Time9:55:42hPace5.04Cat.W45
- 47Team Ultra Chico8th F · 5th W35Time9:55:52hPace5.04Cat.W35
- 48Carbono Assessoria Esp...40th M · 10th M40Time9:58:01hPace5.02Cat.M40
- 49Gr Assessoria Esportiva41st M · 13th M23Time9:57:43hPace5.02Cat.M23
- 50Tendência Outdoor9th F · 2nd W23Time9:58:05hPace5.02Cat.W23
Showing ranks 1–50 of 118